Карточка аэропорта UAOO

Внимание!
Информация на этой странице в стадии наполнения.
Если вы не увидели какой-то информации, или заметили неточность - пожалуйста сообщите нам!
Спасибо!
Команда RU-STAFF
Название аэропортаКызылорда
Название аэропорта (англ.)Kyzylorda
Превышение433 ft. (132 m.)
Координаты44°42.414', 65°35.55'
Высота перехода10000ft
Эшелон переходаFL120, QNH<733:FL130
Коды ответчика3474-3475, 7270-7273
Зона ОрВДШымкент РПИ (UAII)
Данные METARUAOO 210830Z 08002MPS CAVOK M00/M14 Q1027 NOSIG RMK QFE759/1012
Проноз погоды (TAF)
NOTAMshow/hide NOTAM
AWOS   TABLE

Информация о ВПП

ВПП Длина ВПП (м.) Покрытие Курс ВПП Частота ILS
052700Асфальтобетон61111.1
232700Асфальтобетон241 

Диспетчерские позиции




Спутниковое изображение